Time;durP1;ratioP1;P1;durP2;ratioP2;P2;SDS_P1;SDS_P2;PMS_P1;PMS_P2;Temp;Humidity;BMP_temperature;BMP_pressure;BME280_temperature;BME280_humidity;BME280_pressure;Samples;Min_cycle;Max_cycle;Signal;HPM_P1;HPM_P2
2022/10/02 00:02:08;;;;;;;;;2.50;2.50;;;;;17.87;61.48;101554.38;4937926;28;45406;-45
2022/10/02 00:04:43;;;;;;;;;2.25;2.25;;;;;17.91;62.20;101562.94;4938174;28;45414;-45
2022/10/02 00:07:10;;;;;;;;;4.33;4.00;;;;;17.89;62.48;101556.88;4937541;28;47230;-43
2022/10/02 00:09:52;;;;;;;;;4.25;3.00;;;;;17.90;62.50;101566.63;4937542;28;45492;-43
2022/10/02 00:12:22;;;;;;;;;5.50;3.75;;;;;17.90;62.84;101567.47;4937961;28;45397;-43
2022/10/02 00:14:51;;;;;;;;;4.50;3.00;;;;;17.88;62.99;101560.59;4937842;28;45668;-44
2022/10/02 00:17:31;;;;;;;;;3.00;3.00;;;;;17.91;62.96;101568.31;4937800;28;46468;-43
2022/10/02 00:19:57;;;;;;;;;0.00;0.00;;;;;17.90;63.47;101562.06;4937740;28;45458;-44
2022/10/02 00:22:40;;;;;;;;;2.75;2.00;;;;;17.90;63.25;101555.84;4984509;28;45353;-42
2022/10/02 00:25:47;;;;;;;;;5.25;3.75;;;;;17.90;63.04;101563.94;5018336;28;45334;-41
2022/10/02 00:28:27;;;;;;;;;2.50;1.75;;;;;17.87;63.88;101559.75;4976150;28;46344;-44
2022/10/02 00:31:01;;;;;;;;;5.75;3.00;;;;;17.90;64.33;101567.47;4976200;28;45444;-42
2022/10/02 00:33:58;;;;;;;;;1.00;0.50;;;;;17.86;64.12;101555.38;4976474;28;45925;-43
2022/10/02 00:36:40;;;;;;;;;5.25;3.25;;;;;17.90;64.45;101558.53;4961797;28;45443;-41
2022/10/02 00:39:43;;;;;;;;;3.75;3.00;;;;;17.90;64.40;101561.25;4959532;28;47968;-43
2022/10/02 00:42:45;;;;;;;;;7.75;4.00;;;;;17.90;64.44;101566.63;4975688;28;45529;-43
2022/10/02 00:45:29;;;;;;;;;3.75;3.75;;;;;17.90;64.71;101570.16;4976157;28;45626;-42
2022/10/02 00:48:19;;;;;;;;;4.50;3.25;;;;;17.90;65.18;101572.84;4976206;28;45428;-44
2022/10/02 00:51:04;;;;;;;;;6.50;3.00;;;;;17.90;65.64;101575.53;4975885;28;47115;-42
2022/10/02 00:53:53;;;;;;;;;3.25;2.50;;;;;17.90;65.25;101582.78;4975352;28;45375;-42
2022/10/02 00:56:33;;;;;;;;;2.75;2.00;;;;;17.90;65.77;101583.63;4974862;28;45481;-42
2022/10/02 00:59:32;;;;;;;;;2.00;1.75;;;;;17.89;65.74;101575.72;4976228;28;45468;-42
2022/10/02 01:02:05;;;;;;;;;5.00;3.00;;;;;17.85;66.00;101571.69;4975639;28;45507;-45
2022/10/02 01:04:34;;;;;;;;;2.25;2.25;;;;;17.89;66.34;101578.41;4975603;28;45457;-44
2022/10/02 01:07:01;;;;;;;;;2.00;2.00;;;;;17.91;66.40;101574.53;4975592;28;45402;-43
2022/10/02 01:09:26;;;;;;;;;3.50;2.25;;;;;17.93;66.42;101579.75;4975991;28;45493;-43
2022/10/02 01:11:52;;;;;;;;;5.25;2.00;;;;;17.96;66.62;101584.78;4975486;28;46114;-43
2022/10/02 01:14:18;;;;;;;;;3.50;2.00;;;;;17.95;66.95;101578.56;4975505;28;45500;-45
2022/10/02 01:16:44;;;;;;;;;4.00;2.75;;;;;17.90;67.42;101575.53;4975791;28;45409;-45
2022/10/02 01:19:36;;;;;;;;;3.00;3.00;;;;;17.90;67.74;101580.91;4975895;28;45525;-43
2022/10/02 01:22:33;;;;;;;;;4.00;2.25;;;;;17.88;67.85;101571.34;4975477;28;47397;-42
2022/10/02 01:25:03;;;;;;;;;3.50;2.00;;;;;17.86;68.53;101570.69;4975292;28;45447;-41
2022/10/02 01:27:30;;;;;;;;;4.00;2.00;;;;;17.85;69.00;101564.47;4975451;28;45502;-42
2022/10/02 01:30:00;;;;;;;;;4.00;3.00;;;;;17.82;69.22;101567.50;4975814;28;45394;-43
2022/10/02 01:32:28;;;;;;;;;2.75;2.75;;;;;17.78;69.80;101566.19;4979659;28;46265;-43
2022/10/02 01:34:55;;;;;;;;;4.00;2.00;;;;;17.82;70.34;101572.03;5017236;28;45313;-49
2022/10/02 01:37:25;;;;;;;;;3.25;2.00;;;;;17.76;70.64;101564.66;5017027;28;45346;-49
2022/10/02 01:39:51;;;;;;;;;2.00;1.25;;;;;17.80;70.87;101574.06;5017155;28;45349;-42
2022/10/02 01:42:19;;;;;;;;;3.50;3.00;;;;;17.79;71.46;101569.72;5016950;28;45352;-42
2022/10/02 01:44:45;;;;;;;;;3.50;3.00;;;;;17.76;71.66;101561.97;5017013;28;45538;-42
2022/10/02 01:47:18;;;;;;;;;2.00;2.00;;;;;17.74;71.72;101562.16;5017237;28;45479;-43
2022/10/02 01:49:50;;;;;;;;;3.00;1.50;;;;;17.73;72.07;101568.50;4999497;28;45576;-50
2022/10/02 01:52:33;;;;;;;;;4.50;2.00;;;;;17.69;71.34;101568.00;5016400;28;47144;-45
2022/10/02 01:55:35;;;;;;;;;2.00;2.00;;;;;17.71;71.79;101562.47;5016615;28;45795;-42
2022/10/02 01:58:33;;;;;;;;;5.75;2.00;;;;;17.70;71.90;101561.63;5016878;28;45865;-44
2022/10/02 02:01:14;;;;;;;;;2.50;1.00;;;;;17.69;72.30;101559.09;5016790;28;45402;-42
2022/10/02 02:04:01;;;;;;;;;3.50;3.00;;;;;17.69;72.85;101559.09;5016571;28;45615;-41
2022/10/02 02:06:32;;;;;;;;;2.00;2.00;;;;;17.68;72.75;101554.75;5016480;28;45851;-45
2022/10/02 02:09:18;;;;;;;;;3.50;2.00;;;;;17.68;72.39;101560.97;5016714;28;45193;-47
2022/10/02 02:11:52;;;;;;;;;2.50;2.25;;;;;17.69;72.92;101551.03;5016778;28;45393;-45
2022/10/02 02:14:46;;;;;;;;;3.00;3.00;;;;;17.68;72.45;101555.56;5016486;28;47308;-41
2022/10/02 02:17:37;;;;;;;;;2.50;2.50;;;;;17.68;72.83;101549.34;5015263;28;45360;-41
2022/10/02 02:20:12;;;;;;;;;4.00;2.25;;;;;17.68;73.21;101552.88;5016636;28;45474;-41
2022/10/02 02:22:44;;;;;;;;;4.00;1.00;;;;;17.69;73.66;101545.66;5016689;28;45997;-45
2022/10/02 02:25:24;;;;;;;;;3.25;2.00;;;;;17.69;73.41;101546.47;5016159;28;46980;-42
2022/10/02 02:27:57;;;;;;;;;1.00;1.00;;;;;17.66;74.50;101541.47;5016270;28;45469;-43
2022/10/02 02:30:24;;;;;;;;;2.50;1.25;;;;;17.66;75.22;101535.25;4999168;28;45809;-43
2022/10/02 02:32:58;;;;;;;;;1.00;1.00;;;;;17.65;75.20;101531.69;5016735;28;45320;-42
2022/10/02 02:35:28;;;;;;;;;2.00;2.00;;;;;17.61;75.17;101521.47;5016000;28;45392;-45
2022/10/02 02:37:59;;;;;;;;;4.75;3.00;;;;;17.52;75.42;101506.38;5016000;28;45401;-41
2022/10/02 02:40:29;;;;;;;;;3.00;3.00;;;;;17.63;75.74;101525.66;5016315;28;45393;-44
2022/10/02 02:43:07;;;;;;;;;1.25;1.25;;;;;17.62;75.82;101528.53;5016113;28;45289;-43
2022/10/02 02:45:41;;;;;;;;;2.50;1.75;;;;;17.62;75.93;101521.31;5015921;28;46456;-42
2022/10/02 02:48:17;;;;;;;;;3.00;1.75;;;;;17.61;75.26;101524.16;5015960;28;45343;-42
2022/10/02 02:50:49;;;;;;;;;1.75;1.75;;;;;17.59;76.05;101516.25;5016054;28;45457;-41
2022/10/02 02:53:30;;;;;;;;;2.00;2.00;;;;;17.57;76.00;101520.13;5016184;28;45466;-42
2022/10/02 02:56:00;;;;;;;;;3.00;2.00;;;;;17.57;75.98;101515.63;5015643;28;47507;-41
2022/10/02 02:58:54;;;;;;;;;2.00;2.00;;;;;17.56;75.93;101510.38;5015839;28;45262;-43
2022/10/02 03:01:19;;;;;;;;;2.75;2.75;;;;;17.57;76.45;101509.38;5011689;28;45389;-42
2022/10/02 03:03:45;;;;;;;;;2.50;1.75;;;;;17.56;76.98;101515.75;5016288;28;45311;-43
2022/10/02 03:06:17;;;;;;;;;2.25;1.00;;;;;17.56;76.87;101505.84;5015747;28;46121;-42
2022/10/02 03:08:46;;;;;;;;;4.00;3.00;;;;;17.56;77.25;101503.16;5015677;28;45323;-43
2022/10/02 03:11:56;;;;;;;;;2.25;2.25;;;;;17.52;76.26;101507.19;5015142;28;45454;-47
2022/10/02 03:14:40;;;;;;;;;3.00;1.00;;;;;17.53;75.38;101505.34;5013711;28;45508;-45
2022/10/02 03:17:39;;;;;;;;;3.00;3.00;;;;;17.51;77.62;101508.22;5015345;28;45531;-45
2022/10/02 03:20:35;;;;;;;;;3.50;2.25;;;;;17.50;76.97;101498.47;5017635;28;45160;-44
2022/10/02 03:23:14;;;;;;;;;5.00;2.75;;;;;17.50;76.85;101501.16;5019292;28;45467;-44
2022/10/02 03:26:01;;;;;;;;;5.25;3.00;;;;;17.50;76.85;101503.84;5019714;28;45432;-43
2022/10/02 03:28:39;;;;;;;;;2.00;2.00;;;;;17.52;77.83;101493.75;5019205;28;45416;-44
2022/10/02 03:31:06;;;;;;;;;4.25;2.25;;;;;17.52;75.69;101495.59;5018980;28;45245;-43
2022/10/02 03:33:34;;;;;;;;;1.00;1.00;;;;;17.49;78.00;101491.44;5019181;28;45444;-42
2022/10/02 03:36:00;;;;;;;;;2.50;2.50;;;;;17.51;78.67;101497.47;5019399;28;45456;-45
2022/10/02 03:38:27;;;;;;;;;1.00;1.00;;;;;17.53;78.84;101486.50;5001018;28;47753;-42
2022/10/02 03:40:56;;;;;;;;;1.00;1.00;;;;;17.51;78.81;101484.00;5018973;28;45267;-43
2022/10/02 03:43:25;;;;;;;;;3.25;2.00;;;;;17.54;78.78;101478.28;5000873;28;45586;-42
2022/10/02 03:45:51;;;;;;;;;3.00;1.00;;;;;17.54;79.07;101480.97;5019102;28;45485;-43
2022/10/02 03:48:16;;;;;;;;;1.00;1.00;;;;;17.53;78.28;101487.38;5018942;28;46262;-42
2022/10/02 03:50:42;;;;;;;;;1.00;0.50;;;;;17.54;78.72;101486.34;5018691;28;45405;-43
2022/10/02 03:53:16;;;;;;;;;0.50;0.50;;;;;17.56;78.57;101486.19;5018569;28;45443;-42
2022/10/02 03:56:00;;;;;;;;;4.00;2.75;;;;;17.59;78.71;101486.66;5019042;28;45270;-42
2022/10/02 03:58:25;;;;;;;;;1.25;1.25;;;;;17.54;78.90;101472.06;5018464;28;46387;-42
2022/10/02 04:01:00;;;;;;;;;2.50;1.00;;;;;17.62;78.63;101486.31;5018704;28;45324;-47
2022/10/02 04:03:38;;;;;;;;;3.25;1.75;;;;;17.59;78.57;101478.59;5018037;28;45455;-42
2022/10/02 04:06:45;;;;;;;;;1.00;1.00;;;;;17.61;78.49;101481.09;5018968;28;45733;-44
2022/10/02 04:09:22;;;;;;;;;1.50;1.00;;;;;17.64;77.74;101489.66;5018094;28;46213;-47
2022/10/02 04:12:04;;;;;;;;;2.00;0.50;;;;;17.64;78.24;101480.75;5018606;28;45416;-42
2022/10/02 04:14:54;;;;;;;;;1.00;1.00;;;;;17.61;78.58;101478.41;5018745;28;45450;-45
2022/10/02 04:17:51;;;;;;;;;1.00;1.00;;;;;17.58;78.21;101473.41;5018614;28;45463;-40
2022/10/02 04:20:25;;;;;;;;;0.25;0.25;;;;;17.66;78.79;101484.97;5018538;28;46140;-41
2022/10/02 04:23:05;;;;;;;;;1.00;1.00;;;;;17.66;78.31;101490.34;5018432;28;45373;-42
2022/10/02 04:25:42;;;;;;;;;1.00;1.00;;;;;17.68;78.54;101491.00;5018283;28;45525;-40
2022/10/02 04:28:14;;;;;;;;;0.75;0.75;;;;;17.68;78.90;101482.94;5018385;28;45398;-42
2022/10/02 04:30:39;;;;;;;;;1.00;1.00;;;;;17.71;78.66;101489.81;5016857;28;45898;-40
2022/10/02 04:33:18;;;;;;;;;0.75;0.75;;;;;17.71;78.85;101489.81;5018110;28;45809;-42
2022/10/02 04:36:13;;;;;;;;;0.50;0.50;;;;;17.73;78.03;101481.56;5018237;28;45286;-43
2022/10/02 04:38:41;;;;;;;;;0.50;0.00;;;;;17.75;78.88;101487.66;5018249;28;45338;-41
2022/10/02 04:41:06;;;;;;;;;0.00;0.00;;;;;17.75;79.09;101487.66;5018049;28;45420;-41
2022/10/02 04:43:46;;;;;;;;;0.00;0.00;;;;;17.74;78.33;101494.88;5017910;28;45290;-42
2022/10/02 04:46:30;;;;;;;;;1.00;0.00;;;;;17.73;78.12;101495.00;5018330;28;45342;-43
2022/10/02 04:49:10;;;;;;;;;0.00;0.00;;;;;17.72;78.72;101496.88;5018775;28;45457;-42
2022/10/02 04:52:13;;;;;;;;;0.75;0.00;;;;;17.72;78.63;101496.88;5018050;28;45695;-42
2022/10/02 04:55:00;;;;;;;;;0.00;0.00;;;;;17.70;78.65;101499.75;5018279;28;45458;-44
2022/10/02 04:57:51;;;;;;;;;1.75;0.25;;;;;17.68;79.05;101498.22;5018282;28;45365;-42
2022/10/02 05:00:21;;;;;;;;;2.00;0.00;;;;;17.63;79.13;101490.69;5018212;28;45387;-42
2022/10/02 05:03:11;;;;;;;;;0.00;0.00;;;;;17.64;78.64;101496.91;5017829;28;46989;-40
2022/10/02 05:05:48;;;;;;;;;0.00;0.00;;;;;17.59;79.28;101500.13;5017797;28;45464;-44
2022/10/02 05:08:14;;;;;;;;;0.50;0.50;;;;;17.57;79.48;101502.16;5017811;28;45363;-42
2022/10/02 05:10:39;;;;;;;;;0.00;0.00;;;;;17.53;79.31;101503.53;5018144;28;45515;-42
2022/10/02 05:13:19;;;;;;;;;0.00;0.00;;;;;17.50;79.48;101498.47;5017269;28;47376;-47
2022/10/02 05:16:01;;;;;;;;;0.00;0.00;;;;;17.44;79.31;101497.34;5017661;28;45230;-43
2022/10/02 05:18:26;;;;;;;;;1.00;0.00;;;;;17.41;79.92;101507.59;5017532;28;45367;-42
2022/10/02 05:21:06;;;;;;;;;0.00;0.00;;;;;17.34;79.61;101504.75;5017741;28;45520;-44
2022/10/02 05:23:41;;;;;;;;;0.00;0.00;;;;;17.32;79.48;101500.53;5017162;28;47004;-41
2022/10/02 05:26:44;;;;;;;;;0.75;0.00;;;;;17.30;79.84;101508.78;4999383;28;45339;-46
2022/10/02 05:29:15;;;;;;;;;0.00;0.00;;;;;17.29;79.94;101498.22;5017195;28;45654;-41
2022/10/02 05:32:03;;;;;;;;;0.00;0.00;;;;;17.31;79.51;101504.25;5017628;28;45333;-41
2022/10/02 05:34:56;;;;;;;;;0.75;0.00;;;;;17.29;79.63;101504.44;5016928;28;45235;-43
2022/10/02 05:37:39;;;;;;;;;0.00;0.00;;;;;17.29;79.08;101500.91;5017135;28;45427;-42
2022/10/02 05:40:29;;;;;;;;;0.00;0.00;;;;;17.24;79.00;101498.72;5017140;28;45516;-42
2022/10/02 05:42:59;;;;;;;;;0.00;0.00;;;;;17.20;79.87;101511.69;5016851;28;45322;-41
2022/10/02 05:45:32;;;;;;;;;0.25;0.25;;;;;17.15;80.08;101505.13;5016984;28;47760;-41
2022/10/02 05:48:05;;;;;;;;;0.00;0.00;;;;;17.12;80.12;101516.22;5017001;28;45365;-43
2022/10/02 05:50:35;;;;;;;;;0.00;0.00;;;;;17.10;79.65;101511.00;5017071;28;45462;-41
2022/10/02 05:53:16;;;;;;;;;0.00;0.00;;;;;17.04;80.21;101508.19;5017119;28;45375;-43
2022/10/02 05:55:57;;;;;;;;;0.00;0.00;;;;;17.05;79.40;101518.75;5016906;28;45567;-44
2022/10/02 05:58:35;;;;;;;;;0.00;0.00;;;;;17.04;80.19;101529.69;5016683;28;45317;-48
2022/10/02 06:01:35;;;;;;;;;0.00;0.00;;;;;17.03;80.28;101534.22;5017131;28;45545;-45
2022/10/02 06:04:05;;;;;;;;;0.00;0.00;;;;;17.04;79.56;101537.75;5017179;28;45310;-52
2022/10/02 06:06:47;;;;;;;;;0.50;0.00;;;;;17.07;79.42;101540.09;5016804;28;45662;-43
2022/10/02 06:09:23;;;;;;;;;0.00;0.00;;;;;17.11;80.07;101533.38;5016729;28;45356;-52
2022/10/02 06:12:11;;;;;;;;;0.00;0.00;;;;;17.19;79.87;101531.50;5017013;28;45360;-50
2022/10/02 06:14:42;;;;;;;;;0.00;0.00;;;;;17.28;79.94;101534.19;5016829;28;45316;-50
2022/10/02 06:17:13;;;;;;;;;0.00;0.00;;;;;17.31;78.83;101539.19;5016537;28;47441;-51
2022/10/02 06:19:57;;;;;;;;;0.00;0.00;;;;;17.27;78.42;101536.00;4998639;28;45433;-52
2022/10/02 06:22:27;;;;;;;;;0.00;0.00;;;;;17.18;79.28;101518.22;5016912;28;45433;-52
2022/10/02 06:25:05;;;;;;;;;0.00;0.00;;;;;17.20;79.91;101530.50;5016826;28;45345;-45
2022/10/02 06:27:53;;;;;;;;;0.00;0.00;;;;;17.19;79.49;101534.19;5016114;28;48685;-47
2022/10/02 06:30:20;;;;;;;;;1.75;0.00;;;;;17.26;80.04;101536.19;5016575;28;45378;-43
2022/10/02 06:32:52;;;;;;;;;0.00;0.00;;;;;17.36;79.64;101535.00;4998960;28;45381;-49
2022/10/02 06:35:28;;;;;;;;;0.00;0.00;;;;;17.44;79.09;101534.13;5016702;28;45393;-47
2022/10/02 06:38:24;;;;;;;;;0.00;0.00;;;;;17.55;78.51;101538.31;5016282;28;46284;-47
2022/10/02 06:41:06;;;;;;;;;0.00;0.00;;;;;17.66;78.25;101540.63;5006862;28;45510;-49
2022/10/02 06:43:53;;;;;;;;;0.00;0.00;;;;;17.73;78.29;101544.28;5003620;28;45428;-48
2022/10/02 06:46:46;;;;;;;;;0.00;0.00;;;;;17.82;77.65;101539.75;5013571;28;45376;-45
2022/10/02 06:49:24;;;;;;;;;0.00;0.00;;;;;17.86;77.92;101538.38;5010123;28;45942;-42
2022/10/02 06:52:25;;;;;;;;;1.00;0.00;;;;;17.93;77.60;101537.50;5020338;28;45638;-41
2022/10/02 06:55:12;;;;;;;;;0.00;0.00;;;;;18.01;77.45;101533.09;5034575;28;45612;-43
2022/10/02 06:57:49;;;;;;;;;0.00;0.00;;;;;18.07;76.98;101538.59;5035822;28;45285;-43
2022/10/02 07:00:18;;;;;;;;;0.00;0.00;;;;;18.13;77.20;101534.38;5035625;28;46192;-46
2022/10/02 07:03:15;;;;;;;;;0.00;0.00;;;;;18.22;76.49;101543.25;5035988;28;45273;-45
2022/10/02 07:06:00;;;;;;;;;0.00;0.00;;;;;18.27;76.46;101538.16;5035824;28;45396;-42
2022/10/02 07:08:53;;;;;;;;;2.00;0.00;;;;;18.35;76.29;101541.66;5036182;28;45343;-46
2022/10/02 07:11:35;;;;;;;;;0.00;0.00;;;;;18.45;76.02;101538.72;5035339;28;45383;-45
2022/10/02 07:14:01;;;;;;;;;0.00;0.00;;;;;18.53;74.92;101525.19;5035423;28;45510;-43
2022/10/02 07:16:50;;;;;;;;;0.25;0.00;;;;;18.60;75.31;101526.16;5035786;28;45380;-44
2022/10/02 07:19:40;;;;;;;;;0.00;0.00;;;;;18.70;75.07;101531.31;5036008;28;45536;-43
2022/10/02 07:22:42;;;;;;;;;0.00;0.00;;;;;18.83;74.51;101528.00;5035671;28;47419;-43
2022/10/02 07:25:38;;;;;;;;;0.00;0.00;;;;;18.97;74.23;101529.94;5035538;28;45367;-44
2022/10/02 07:28:09;;;;;;;;;4.00;0.00;;;;;19.13;73.50;101537.00;5035606;28;45408;-42
2022/10/02 07:30:52;;;;;;;;;0.00;0.00;;;;;19.29;72.94;101533.31;5035803;28;45609;-43
2022/10/02 07:33:32;;;;;;;;;1.00;0.00;;;;;19.42;71.80;101539.75;5023825;28;45377;-43
2022/10/02 07:36:00;;;;;;;;;0.00;0.00;;;;;19.59;71.25;101550.34;5015418;28;45635;-42
2022/10/02 07:38:45;;;;;;;;;0.00;0.00;;;;;19.74;70.65;101553.09;5014762;28;45496;-45
2022/10/02 07:41:19;;;;;;;;;0.00;0.00;;;;;19.79;69.63;101550.66;5015672;28;45329;-42
2022/10/02 07:44:09;;;;;;;;;0.00;0.00;;;;;19.78;69.18;101552.53;5014057;28;47061;-43
2022/10/02 07:46:37;;;;;;;;;0.20;0.20;;;;;19.80;69.53;101544.22;5014345;28;45463;-42
2022/10/02 07:49:31;;;;;;;;;0.00;0.00;;;;;19.84;68.94;101540.13;5015369;28;45411;-41
2022/10/02 07:52:05;;;;;;;;;0.00;0.00;;;;;19.83;69.14;101542.00;5015284;28;45533;-49
2022/10/02 07:54:53;;;;;;;;;1.00;1.00;;;;;19.91;68.84;101544.59;5015220;28;45400;-44
2022/10/02 07:57:36;;;;;;;;;0.00;0.00;;;;;20.05;68.71;101548.28;5014764;28;45415;-43
2022/10/02 08:00:16;;;;;;;;;0.00;0.00;;;;;20.23;67.92;101552.47;5014901;28;45357;-44
2022/10/02 08:03:11;;;;;;;;;2.00;1.00;;;;;20.37;67.62;101560.50;5015495;28;45751;-44
2022/10/02 08:05:47;;;;;;;;;0.25;0.25;;;;;20.44;66.54;101566.00;4936073;28;46361;-43
2022/10/02 08:08:34;;;;;;;;;1.80;0.00;;;;;20.58;66.35;101577.81;4938146;28;45267;-43
2022/10/02 08:11:08;;;;;;;;;0.20;0.20;;;;;20.92;64.94;101577.09;4938183;28;45474;-42
2022/10/02 08:13:48;;;;;;;;;2.00;0.50;;;;;21.00;64.68;101579.66;4938213;28;45449;-44
2022/10/02 08:16:18;;;;;;;;;0.80;0.80;;;;;21.16;64.20;101573.97;4937744;28;45498;-43
2022/10/02 08:18:53;;;;;;;;;0.00;0.00;;;;;21.41;63.44;101568.16;4937755;28;45343;-44
2022/10/02 08:21:20;;;;;;;;;0.20;0.00;;;;;21.30;63.20;101577.59;4938230;28;45445;-42
2022/10/02 08:23:52;;;;;;;;;2.00;1.00;;;;;21.03;64.21;101568.44;4938322;28;45422;-42
2022/10/02 08:26:23;;;;;;;;;0.00;0.00;;;;;20.89;63.88;101572.06;4937467;28;46230;-42
2022/10/02 08:29:15;;;;;;;;;2.60;0.60;;;;;20.73;64.88;101569.63;4937647;28;45478;-42
2022/10/02 08:31:41;;;;;;;;;0.20;0.20;;;;;20.54;64.80;101580.03;4938019;28;45372;-42
2022/10/02 08:34:17;;;;;;;;;2.00;1.50;;;;;20.43;65.24;101584.03;4938178;28;45468;-41
2022/10/02 08:36:54;;;;;;;;;1.50;1.00;;;;;20.37;65.53;101579.41;4937644;28;47222;-47
2022/10/02 08:39:19;;;;;;;;;1.00;1.00;;;;;20.37;65.24;101574.00;4937770;28;45863;-41
2022/10/02 08:42:06;;;;;;;;;4.50;1.00;;;;;20.36;65.39;101583.16;4949709;28;45395;-42
2022/10/02 08:45:17;;;;;;;;;2.00;1.00;;;;;20.36;65.27;101591.25;5018290;28;45398;-42
2022/10/02 08:48:22;;;;;;;;;3.25;1.00;;;;;20.43;65.13;101592.16;5013815;28;45551;-41
2022/10/02 08:51:10;;;;;;;;;1.20;1.20;;;;;20.45;64.99;101597.38;5018011;28;45490;-42
2022/10/02 08:53:50;;;;;;;;;2.75;1.50;;;;;20.46;65.26;101592.81;5000063;28;45534;-42
2022/10/02 08:56:31;;;;;;;;;5.75;1.75;;;;;20.55;65.11;101587.13;5018186;28;45540;-41
2022/10/02 08:59:08;;;;;;;;;1.40;1.20;;;;;20.63;64.59;101592.41;5017137;28;45478;-42
2022/10/02 09:01:55;;;;;;;;;1.40;1.40;;;;;20.56;64.62;101593.34;5017681;28;45393;-42
2022/10/02 09:04:48;;;;;;;;;2.40;1.00;;;;;20.46;64.74;101593.66;5017694;28;45238;-43
2022/10/02 09:07:25;;;;;;;;;1.25;1.25;;;;;20.43;64.94;101581.34;5017890;28;45462;-43
2022/10/02 09:10:21;;;;;;;;;2.80;1.00;;;;;20.47;65.08;101589.06;5017542;28;46313;-42
2022/10/02 09:13:31;;;;;;;;;4.80;2.00;;;;;20.38;64.95;101582.94;5017805;28;45379;-41
2022/10/02 09:16:32;;;;;;;;;2.00;1.00;;;;;20.40;65.38;101597.13;5017263;28;45245;-42
2022/10/02 09:19:06;;;;;;;;;5.00;1.75;;;;;20.03;65.24;101525.19;5017727;28;45826;-42
2022/10/02 09:21:58;;;;;;;;;1.00;0.00;;;;;20.44;65.80;101584.91;5017330;28;47443;-42
2022/10/02 09:24:55;;;;;;;;;0.00;0.00;;;;;20.51;64.92;101585.00;5017338;28;45396;-41
2022/10/02 09:27:42;;;;;;;;;1.80;1.80;;;;;20.65;65.01;101573.31;5017368;28;45438;-42
2022/10/02 09:30:31;;;;;;;;;2.00;2.00;;;;;20.78;64.54;101578.84;5017431;28;45389;-42
2022/10/02 09:33:38;;;;;;;;;0.40;0.40;;;;;20.82;64.49;101571.19;5017066;28;46331;-41
2022/10/02 09:36:25;;;;;;;;;2.60;1.20;;;;;21.00;64.28;101570.72;5015594;28;45297;-42
2022/10/02 09:39:12;;;;;;;;;2.40;1.40;;;;;21.24;63.69;101561.31;5017263;28;45460;-44
2022/10/02 09:41:43;;;;;;;;;1.75;1.00;;;;;21.39;62.75;101564.78;5015970;28;45468;-43
2022/10/02 09:44:11;;;;;;;;;0.20;0.00;;;;;21.43;62.65;101571.47;5016854;28;47220;-43
2022/10/02 09:46:46;;;;;;;;;2.80;1.60;;;;;21.46;62.36;101576.50;5016993;28;45263;-42
2022/10/02 09:49:30;;;;;;;;;2.00;1.00;;;;;21.39;62.79;101571.03;5016961;28;45376;-42
2022/10/02 09:52:10;;;;;;;;;1.50;1.50;;;;;21.54;62.68;101572.81;5016970;28;45539;-43
2022/10/02 09:55:04;;;;;;;;;1.00;1.00;;;;;21.73;62.09;101571.22;5016794;28;45998;-43
2022/10/02 09:57:51;;;;;;;;;1.00;1.00;;;;;22.00;61.19;101573.06;5016962;28;45404;-41
2022/10/02 10:00:22;;;;;;;;;1.00;1.00;;;;;22.08;61.15;101582.84;5017248;28;45250;-42
2022/10/02 10:03:55;;;;;;;;;1.80;1.00;;;;;22.07;61.18;101573.88;5017470;28;45428;-42
2022/10/02 10:06:23;;;;;;;;;1.00;1.00;;;;;22.33;60.72;101583.19;4916882;28;47382;-42
2022/10/02 10:09:14;;;;;;;;;1.80;1.00;;;;;22.89;59.71;101572.88;4917201;28;45549;-41
2022/10/02 10:11:46;;;;;;;;;2.20;1.80;;;;;23.21;58.66;101577.69;4917087;28;45217;-43
2022/10/02 10:14:24;;;;;;;;;3.40;1.40;;;;;23.42;58.13;101575.56;4917353;28;45403;-42
2022/10/02 10:16:55;;;;;;;;;2.00;1.00;;;;;23.48;57.01;101573.06;4900767;28;48793;-44
2022/10/02 10:19:53;;;;;;;;;1.40;1.00;;;;;23.56;57.06;101570.97;4916762;28;45425;-43
2022/10/02 10:22:37;;;;;;;;;1.00;1.00;;;;;23.97;56.73;101580.66;4916782;28;45457;-42
2022/10/02 10:25:19;;;;;;;;;3.60;1.00;;;;;25.09;54.17;101575.66;4916943;28;45473;-45
2022/10/02 10:28:18;;;;;;;;;1.80;1.00;;;;;25.11;54.13;101578.97;4916572;28;47083;-44
2022/10/02 10:31:13;;;;;;;;;0.20;0.20;;;;;24.83;54.13;101582.94;4916970;28;45429;-43
2022/10/02 10:33:44;;;;;;;;;0.60;0.60;;;;;24.52;54.36;101586.50;4917010;28;45332;-41
2022/10/02 10:39:34;;;;;;;;;1.20;1.20;;;;;24.56;54.43;101578.72;4935860;28;45496;-44
2022/10/02 10:42:49;;;;;;;;;1.00;1.00;;;;;24.68;54.15;101571.53;4971037;28;45320;-42
2022/10/02 10:45:33;;;;;;;;;0.00;0.00;;;;;24.75;54.17;101566.91;5016439;28;45401;-44
2022/10/02 10:48:24;;;;;;;;;1.60;1.60;;;;;25.11;52.28;101568.09;5016306;28;45405;-45
2022/10/02 10:51:15;;;;;;;;;0.20;0.20;;;;;25.68;52.68;101567.94;5016148;28;46288;-43
2022/10/02 10:54:21;;;;;;;;;0.80;0.80;;;;;25.60;51.08;101569.06;5016396;28;45809;-42
2022/10/02 10:57:03;;;;;;;;;0.00;0.00;;;;;25.22;52.63;101575.53;5016457;28;45395;-42
2022/10/02 10:59:55;;;;;;;;;1.60;0.40;;;;;24.63;52.66;101574.09;5016454;28;45520;-42
2022/10/02 11:03:08;;;;;;;;;0.40;0.40;;;;;24.09;53.67;101576.22;5015376;28;45504;-43
2022/10/02 11:05:52;;;;;;;;;1.20;1.00;;;;;23.62;54.80;101582.84;5016070;28;45234;-48
2022/10/02 11:08:36;;;;;;;;;3.40;1.40;;;;;23.32;55.13;101579.78;5016210;28;45318;-42
2022/10/02 11:11:17;;;;;;;;;2.20;1.40;;;;;23.04;55.49;101575.41;5016517;28;45352;-47
2022/10/02 11:14:07;;;;;;;;;2.00;0.40;;;;;22.88;55.84;101573.06;5016055;28;46223;-44
2022/10/02 11:16:51;;;;;;;;;0.00;0.00;;;;;22.71;56.02;101575.34;5015922;28;45484;-49
2022/10/02 11:19:58;;;;;;;;;2.20;0.00;;;;;22.62;56.26;101582.84;5016186;28;45409;-42
2022/10/02 11:22:52;;;;;;;;;4.00;1.00;;;;;22.66;56.34;101573.25;5016218;28;45417;-42
2022/10/02 11:25:29;;;;;;;;;0.60;0.60;;;;;22.69;55.96;101573.88;5015756;28;47258;-52
2022/10/02 11:28:07;;;;;;;;;1.60;1.60;;;;;22.64;56.30;101574.50;5015959;28;45333;-45
2022/10/02 11:30:48;;;;;;;;;0.00;0.00;;;;;22.56;56.59;101580.97;5015789;28;45376;-53
2022/10/02 11:33:28;;;;;;;;;0.00;0.00;;;;;22.38;56.88;101569.88;5015676;28;45585;-50
2022/10/02 11:36:40;;;;;;;;;1.00;1.00;;;;;22.24;57.75;101584.41;5015589;28;45342;-50
2022/10/02 11:39:13;;;;;;;;;0.40;0.00;;;;;22.01;58.03;101579.28;5015224;28;45361;-42
2022/10/02 11:42:19;;;;;;;;;3.20;0.60;;;;;21.78;58.76;101583.13;5018825;28;45240;-52
2022/10/02 11:45:12;;;;;;;;;1.00;1.00;;;;;21.77;59.11;101573.34;5019401;28;45373;-45
2022/10/02 11:47:53;;;;;;;;;0.40;0.40;;;;;21.72;58.92;101572.28;5018799;28;47435;-49
2022/10/02 11:50:37;;;;;;;;;0.80;0.80;;;;;21.70;58.70;101583.31;5019179;28;45385;-43
2022/10/02 11:53:28;;;;;;;;;0.80;0.80;;;;;21.70;58.71;101582.44;5018974;28;45396;-45
2022/10/02 11:56:21;;;;;;;;;0.00;0.00;;;;;21.67;59.04;101581.84;5019293;28;45392;-43
2022/10/02 11:59:23;;;;;;;;;2.60;0.00;;;;;21.65;59.27;101593.88;5018572;28;46132;-43
2022/10/02 12:02:05;;;;;;;;;0.80;0.80;;;;;21.41;60.96;101616.88;5018811;28;45254;-43
2022/10/02 12:04:51;;;;;;;;;2.80;1.00;;;;;21.11;62.54;101619.72;5018706;28;45268;-44
2022/10/02 12:07:24;;;;;;;;;2.00;1.20;;;;;21.06;63.44;101624.84;5019055;28;45353;-56
2022/10/02 12:10:02;;;;;;;;;1.00;1.00;;;;;21.18;65.70;101620.59;5018769;28;45382;-47
2022/10/02 12:12:33;;;;;;;;;2.40;1.60;;;;;21.38;65.29;101618.09;5017895;28;45317;-46
2022/10/02 12:15:01;;;;;;;;;4.00;2.20;;;;;21.52;64.64;101613.59;5018665;28;45286;-45
2022/10/02 12:17:41;;;;;;;;;2.00;2.00;;;;;21.57;65.01;101605.69;5018696;28;45471;-44
2022/10/02 12:27:08;;;;;;;;;1.80;1.80;;;;;22.24;64.03;101597.97;5018523;28;45391;-43
2022/10/02 12:30:14;;;;;;;;;3.25;3.25;;;;;22.47;63.40;101590.34;5018923;28;45337;-44
2022/10/02 12:32:54;;;;;;;;;2.40;2.40;;;;;22.58;62.57;101597.00;4937463;28;46285;-43
2022/10/02 12:36:08;;;;;;;;;2.00;2.00;;;;;22.41;61.82;101591.13;4937886;28;45282;-45
2022/10/02 12:39:04;;;;;;;;;2.00;1.20;;;;;22.16;63.80;101602.53;4937526;28;45395;-43
2022/10/02 12:41:41;;;;;;;;;1.80;1.00;;;;;21.96;63.37;101612.41;4937862;28;45524;-42